Time;durP1;ratioP1;P1;durP2;ratioP2;P2;SDS_P1;SDS_P2;PMS_P1;PMS_P2;Temp;Humidity;BMP_temperature;BMP_pressure;BME280_temperature;BME280_humidity;BME280_pressure;Samples;Min_cycle;Max_cycle;Signal;HPM_P1;HPM_P2
2024/02/15 00:01:57;;;;;;;;;;;;;;;10.16;100.00;101236.22;5073531;28;20321;-77
2024/02/15 00:04:22;;;;;;;;;;;;;;;10.19;100.00;101232.31;5078942;28;20381;-76
2024/02/15 00:06:47;;;;;;;;;;;;;;;10.28;100.00;101233.06;5072720;28;20306;-76
2024/02/15 00:09:12;;;;;;;;;;;;;;;10.22;100.00;101241.91;5077422;28;20412;-76
2024/02/15 00:11:39;;;;;;;;;;;;;;;10.23;100.00;101243.56;5079347;28;19985;-76
2024/02/15 00:14:05;;;;;;;;;;;;;;;10.23;100.00;101236.31;5077934;28;19928;-76
2024/02/15 00:16:30;;;;;;;;;;;;;;;10.15;100.00;101237.25;5076084;28;19921;-76
2024/02/15 00:18:55;;;;;;;;;;;;;;;10.20;100.00;101225.94;5075340;28;19952;-76
2024/02/15 00:21:21;;;;;;;;;;;;;;;10.18;100.00;101233.34;5073932;28;19963;-76
2024/02/15 00:23:47;;;;;;;;;;;;;;;10.14;100.00;101238.28;5089956;28;20328;-76
2024/02/15 00:26:12;;;;;;;;;;;;;;;10.16;100.00;101247.00;5079373;28;20018;-76
2024/02/15 00:28:37;;;;;;;;;;;;;;;10.18;100.00;101243.28;5077642;28;19952;-76
2024/02/15 00:31:03;;;;;;;;;;;;;;;10.20;100.00;101242.06;5072952;28;19927;-76
2024/02/15 00:33:29;;;;;;;;;;;;;;;10.25;100.00;101236.97;5076099;28;19967;-76
2024/02/15 00:35:54;;;;;;;;;;;;;;;10.15;100.00;101239.94;5075062;28;19921;-76
2024/02/15 00:38:19;;;;;;;;;;;;;;;10.21;100.00;101232.16;5071630;28;19920;-76
2024/02/15 00:40:45;;;;;;;;;;;;;;;10.19;100.00;101242.28;5080494;28;20284;-76
2024/02/15 00:43:10;;;;;;;;;;;;;;;10.23;100.00;101240.88;5073668;28;19932;-76
2024/02/15 00:45:36;;;;;;;;;;;;;;;10.25;100.00;101241.50;5074208;28;20288;-76
2024/02/15 00:48:01;;;;;;;;;;;;;;;10.21;100.00;101243.75;5075630;28;20349;-76
2024/02/15 00:50:26;;;;;;;;;;;;;;;10.31;100.00;101240.78;5074554;28;19943;-76
2024/02/15 00:52:51;;;;;;;;;;;;;;;10.36;100.00;101246.44;5092116;28;19920;-76
2024/02/15 00:55:16;;;;;;;;;;;;;;;10.41;100.00;101245.91;5092863;28;19927;-76
2024/02/15 00:57:42;;;;;;;;;;;;;;;10.41;100.00;101243.22;5091774;28;19920;-76
2024/02/15 01:00:09;;;;;;;;;;;;;;;10.39;100.00;101251.50;5092643;28;19966;-76
2024/02/15 01:02:35;;;;;;;;;;;;;;;10.42;100.00;101251.09;5092165;28;19924;-76
2024/02/15 01:05:01;;;;;;;;;;;;;;;10.41;100.00;101254.81;5090872;28;19920;-76
2024/02/15 01:07:27;;;;;;;;;;;;;;;10.37;100.00;101245.44;5093604;28;19923;-76
2024/02/15 01:09:52;;;;;;;;;;;;;;;10.38;100.00;101249.81;5091365;28;19924;-76
2024/02/15 01:12:17;;;;;;;;;;;;;;;10.41;100.00;101245.91;5090631;28;19920;-75
2024/02/15 01:14:43;;;;;;;;;;;;;;;10.42;100.00;101251.09;5090968;28;19986;-74
2024/02/15 01:17:08;;;;;;;;;;;;;;;10.42;100.00;101255.66;5091353;28;19920;-74
2024/02/15 01:19:34;;;;;;;;;;;;;;;10.43;100.00;101254.63;5091150;28;20022;-74
2024/02/15 01:21:59;;;;;;;;;;;;;;;10.43;100.00;101247.38;5093608;28;20705;-76
2024/02/15 01:24:25;;;;;;;;;;;;;;;10.41;100.00;101243.22;5088196;28;19920;-75
2024/02/15 01:26:50;;;;;;;;;;;;;;;10.40;100.00;101253.16;5091980;28;20280;-75
2024/02/15 01:29:15;;;;;;;;;;;;;;;10.42;100.00;101251.09;5087492;28;19948;-75
2024/02/15 01:31:40;;;;;;;;;;;;;;;10.38;100.00;101244.44;5091638;28;19920;-75
2024/02/15 01:34:05;;;;;;;;;;;;;;;10.41;100.00;101238.66;5069628;28;20014;-76
2024/02/15 01:36:31;;;;;;;;;;;;;;;10.42;100.00;101239.50;5091606;28;20008;-76
2024/02/15 01:38:56;;;;;;;;;;;;;;;10.38;100.00;101243.56;5089212;28;19955;-76
2024/02/15 01:41:22;;;;;;;;;;;;;;;10.35;100.00;101244.78;5091170;28;19924;-75
2024/02/15 01:43:47;;;;;;;;;;;;;;;10.38;100.00;101244.44;5091979;28;19993;-75
2024/02/15 01:46:13;;;;;;;;;;;;;;;10.39;100.00;101240.72;5090813;28;19920;-75
2024/02/15 01:48:39;;;;;;;;;;;;;;;10.38;100.00;101233.66;5073054;28;20008;-75
2024/02/15 01:51:04;;;;;;;;;;;;;;;10.33;100.00;101238.75;5089677;28;19927;-75
2024/02/15 01:53:30;;;;;;;;;;;;;;;10.36;100.00;101224.91;5062059;28;19920;-76
2024/02/15 01:55:57;;;;;;;;;;;;;;;10.38;100.00;101233.66;5059954;28;20190;-75
2024/02/15 01:58:22;;;;;;;;;;;;;;;10.38;100.00;101232.78;5077747;28;20008;-76
2024/02/15 02:00:47;;;;;;;;;;;;;;;10.41;100.00;101227.06;5092663;28;19928;-75
2024/02/15 02:03:13;;;;;;;;;;;;;;;10.43;100.00;101227.72;5055094;28;19917;-75
2024/02/15 02:05:38;;;;;;;;;;;;;;;10.43;100.00;101225.84;5056987;28;19916;-75
2024/02/15 02:08:09;;;;;;;;;;;;;;;10.43;100.00;101219.66;5064836;28;19932;-75
2024/02/15 02:10:34;;;;;;;;;;;;;;;10.45;100.00;101217.59;5072899;28;19932;-75
2024/02/15 02:13:01;;;;;;;;;;;;;;;10.43;100.00;101215.09;5083938;28;19924;-75
2024/02/15 02:15:26;;;;;;;;;;;;;;;10.42;100.00;101221.50;5078314;28;20376;-75
2024/02/15 02:17:51;;;;;;;;;;;;;;;10.39;100.00;101219.19;5070594;28;19928;-75
2024/02/15 02:20:16;;;;;;;;;;;;;;;10.39;100.00;101211.13;5079292;28;19924;-75
2024/02/15 02:22:45;;;;;;;;;;;;;;;10.41;100.00;101211.75;5088140;28;20007;-75
2024/02/15 02:25:10;;;;;;;;;;;;;;;10.43;100.00;101203.50;5058234;28;20382;-75
2024/02/15 02:27:36;;;;;;;;;;;;;;;10.43;100.00;101203.50;5055740;28;19920;-75
2024/02/15 02:30:06;;;;;;;;;;;;;;;10.42;100.00;101202.66;5073041;28;20580;-74
2024/02/15 02:32:32;;;;;;;;;;;;;;;10.41;100.00;101206.34;5053099;28;19923;-75
2024/02/15 02:34:57;;;;;;;;;;;;;;;10.39;100.00;101203.06;5069714;28;19920;-75
2024/02/15 02:37:25;;;;;;;;;;;;;;;10.38;100.00;101209.44;5071903;28;19916;-75
2024/02/15 02:39:50;;;;;;;;;;;;;;;10.36;100.00;101202.53;5070574;28;19920;-74
2024/02/15 02:42:16;;;;;;;;;;;;;;;10.40;100.00;101212.78;5066244;28;20574;-74
2024/02/15 02:44:41;;;;;;;;;;;;;;;10.41;100.00;101198.28;5068767;28;19917;-74
2024/02/15 02:47:06;;;;;;;;;;;;;;;10.40;100.00;101210.09;5062863;28;20005;-75
2024/02/15 02:49:31;;;;;;;;;;;;;;;10.37;100.00;101210.44;5064486;28;19921;-75
2024/02/15 02:51:57;;;;;;;;;;;;;;;10.40;100.00;101203.88;5082907;28;19923;-75
2024/02/15 02:54:22;;;;;;;;;;;;;;;10.40;100.00;101201.19;5090792;28;19924;-75
2024/02/15 02:56:47;;;;;;;;;;;;;;;10.39;100.00;101197.66;5089519;28;19927;-75
2024/02/15 02:59:12;;;;;;;;;;;;;;;10.35;100.00;101195.47;5089929;28;19923;-76
2024/02/15 03:01:39;;;;;;;;;;;;;;;10.36;100.00;101189.94;5088847;28;19981;-75
2024/02/15 03:04:05;;;;;;;;;;;;;;;10.35;100.00;101190.09;5089310;28;19916;-75
2024/02/15 03:06:30;;;;;;;;;;;;;;;10.33;100.00;101187.59;5090873;28;19994;-75
2024/02/15 03:08:55;;;;;;;;;;;;;;;10.34;100.00;101180.34;5089415;28;20417;-75
2024/02/15 03:11:20;;;;;;;;;;;;;;;10.34;100.00;101181.22;5089421;28;20387;-75
2024/02/15 03:13:46;;;;;;;;;;;;;;;10.32;100.00;101173.31;5091269;28;20406;-75
2024/02/15 03:16:11;;;;;;;;;;;;;;;10.35;100.00;101179.34;5089047;28;20327;-75
2024/02/15 03:18:37;;;;;;;;;;;;;;;10.36;100.00;101181.84;5088628;28;20422;-75
2024/02/15 03:21:04;;;;;;;;;;;;;;;10.37;100.00;101179.97;5091539;28;20564;-76
2024/02/15 03:23:29;;;;;;;;;;;;;;;10.36;100.00;101186.38;5087082;28;20010;-78
2024/02/15 03:25:54;;;;;;;;;;;;;;;10.35;100.00;101177.50;5088864;28;20011;-78
2024/02/15 03:28:21;;;;;;;;;;;;;;;10.34;100.00;101178.50;5088588;28;19973;-77
2024/02/15 03:30:46;;;;;;;;;;;;;;;10.36;100.00;101181.00;5081187;28;19928;-77
2024/02/15 03:33:13;;;;;;;;;;;;;;;10.37;100.00;101178.16;5081580;28;19935;-78
2024/02/15 03:35:38;;;;;;;;;;;;;;;10.38;100.00;101181.66;5090448;28;19916;-78
2024/02/15 03:38:03;;;;;;;;;;;;;;;10.36;100.00;101175.63;5090842;28;19926;-78
2024/02/15 03:40:30;;;;;;;;;;;;;;;10.32;100.00;101165.22;5089435;28;20378;-78
2024/02/15 03:42:56;;;;;;;;;;;;;;;10.33;100.00;101187.59;5089648;28;19916;-77
2024/02/15 03:45:25;;;;;;;;;;;;;;;10.34;100.00;101181.22;5093693;28;19923;-78
2024/02/15 03:47:51;;;;;;;;;;;;;;;10.31;100.00;101178.88;5093526;28;20394;-78
2024/02/15 03:50:16;;;;;;;;;;;;;;;10.30;100.00;101180.75;5091407;28;19924;-77
2024/02/15 03:52:41;;;;;;;;;;;;;;;10.31;100.00;101178.88;5090572;28;19920;-77
2024/02/15 03:55:09;;;;;;;;;;;;;;;10.29;100.00;101178.22;5093689;28;20318;-77
2024/02/15 03:57:35;;;;;;;;;;;;;;;10.27;100.00;101178.44;5094862;28;20321;-77
2024/02/15 04:00:00;;;;;;;;;;;;;;;10.25;100.00;101177.78;5092931;28;19931;-77
2024/02/15 04:02:30;;;;;;;;;;;;;;;10.26;100.00;101173.22;5093410;28;20014;-77
2024/02/15 04:04:55;;;;;;;;;;;;;;;10.21;100.00;101183.72;5097533;28;19924;-77
2024/02/15 04:07:21;;;;;;;;;;;;;;;10.21;100.00;101181.03;5118214;28;19912;-77
2024/02/15 04:09:46;;;;;;;;;;;;;;;10.23;100.00;101181.69;5095482;28;20031;-78
2024/02/15 04:12:12;;;;;;;;;;;;;;;10.21;100.00;101184.56;5082019;28;20377;-78
2024/02/15 04:14:40;;;;;;;;;;;;;;;10.16;100.00;101176.19;5095067;28;19920;-77
2024/02/15 04:17:05;;;;;;;;;;;;;;;10.19;100.00;101175.81;5092744;28;20440;-77
2024/02/15 04:19:31;;;;;;;;;;;;;;;10.22;100.00;101170.06;5093248;28;19920;-78
2024/02/15 04:21:56;;;;;;;;;;;;;;;10.19;100.00;101178.50;5092888;28;20018;-77
2024/02/15 04:24:21;;;;;;;;;;;;;;;10.20;100.00;101176.69;5093945;28;20283;-77
2024/02/15 04:26:48;;;;;;;;;;;;;;;10.19;100.00;101180.38;5093966;28;19924;-77
2024/02/15 04:29:14;;;;;;;;;;;;;;;10.15;100.00;101175.38;5087410;28;19920;-77
2024/02/15 04:31:39;;;;;;;;;;;;;;;10.19;100.00;101164.25;5090325;28;20303;-77
2024/02/15 04:34:05;;;;;;;;;;;;;;;10.18;100.00;101165.25;5092772;28;19924;-77
2024/02/15 04:36:33;;;;;;;;;;;;;;;10.16;100.00;101174.34;5093642;28;19927;-78
2024/02/15 04:38:59;;;;;;;;;;;;;;;10.16;100.00;101155.53;5083950;28;19920;-78
2024/02/15 04:41:24;;;;;;;;;;;;;;;10.14;100.00;101152.19;5092649;28;20008;-77
2024/02/15 04:43:49;;;;;;;;;;;;;;;10.16;100.00;101152.84;5093315;28;19952;-77
2024/02/15 04:46:15;;;;;;;;;;;;;;;10.18;100.00;101151.81;5092652;28;19923;-77
2024/02/15 04:48:43;;;;;;;;;;;;;;;10.14;100.00;101146.78;5093641;28;19931;-77
2024/02/15 04:51:09;;;;;;;;;;;;;;;10.18;100.00;101146.44;5087351;28;20011;-78
2024/02/15 04:53:36;;;;;;;;;;;;;;;10.11;100.00;101141.78;5092667;28;19920;-78
2024/02/15 04:56:03;;;;;;;;;;;;;;;10.13;100.00;101134.38;5092086;28;19940;-77
2024/02/15 04:58:28;;;;;;;;;;;;;;;10.17;100.00;101145.59;5093034;28;19920;-77
2024/02/15 05:00:58;;;;;;;;;;;;;;;10.18;100.00;101143.75;5086400;28;20380;-77
2024/02/15 05:03:23;;;;;;;;;;;;;;;10.22;100.00;101150.41;5089873;28;20441;-76
2024/02/15 05:05:49;;;;;;;;;;;;;;;10.22;100.00;101150.41;5091672;28;19920;-76
2024/02/15 05:08:14;;;;;;;;;;;;;;;10.22;100.00;101145.03;5093223;28;19945;-77
2024/02/15 05:10:39;;;;;;;;;;;;;;;10.21;100.00;101143.38;5091707;28;20015;-77
2024/02/15 05:13:04;;;;;;;;;;;;;;;10.13;100.00;101137.06;5092980;28;20012;-77
2024/02/15 05:15:30;;;;;;;;;;;;;;;10.10;100.00;101136.59;5090254;28;19971;-77
2024/02/15 05:17:55;;;;;;;;;;;;;;;10.16;100.00;101143.91;5091440;28;19950;-77
2024/02/15 05:20:21;;;;;;;;;;;;;;;10.13;100.00;101139.75;5088011;28;20014;-77
2024/02/15 05:22:46;;;;;;;;;;;;;;;10.21;100.00;101151.44;5092201;28;20379;-77
2024/02/15 05:25:12;;;;;;;;;;;;;;;10.17;100.00;101145.59;5091837;28;19926;-77
2024/02/15 05:27:37;;;;;;;;;;;;;;;10.19;100.00;101138.16;5091579;28;19924;-77
2024/02/15 05:30:06;;;;;;;;;;;;;;;10.20;100.00;101144.38;5092045;28;19924;-76
2024/02/15 05:32:31;;;;;;;;;;;;;;;10.20;100.00;101145.22;5092459;28;19943;-77
2024/02/15 05:34:57;;;;;;;;;;;;;;;10.23;100.00;101142.16;5091276;28;20018;-78
2024/02/15 05:37:23;;;;;;;;;;;;;;;10.24;100.00;101140.28;5091798;28;19932;-77
2024/02/15 05:39:52;;;;;;;;;;;;;;;10.22;100.00;101140.47;5090939;28;19972;-77
2024/02/15 05:42:17;;;;;;;;;;;;;;;10.23;100.00;101139.47;5092690;28;20470;-77
2024/02/15 05:44:43;;;;;;;;;;;;;;;10.14;100.00;101132.53;5091938;28;20441;-77
2024/02/15 05:47:08;;;;;;;;;;;;;;;10.11;100.00;101131.03;5091736;28;20411;-78
2024/02/15 05:49:33;;;;;;;;;;;;;;;10.09;100.00;101133.06;5082785;28;20350;-77
2024/02/15 05:51:58;;;;;;;;;;;;;;;10.11;100.00;101125.66;5086606;28;20336;-78
2024/02/15 05:54:23;;;;;;;;;;;;;;;10.12;100.00;101137.25;5071656;28;20341;-78
2024/02/15 05:56:51;;;;;;;;;;;;;;;10.19;100.00;101130.09;5085996;28;20340;-78
2024/02/15 05:59:17;;;;;;;;;;;;;;;10.25;100.00;101142.81;5088948;28;19930;-78
2024/02/15 06:01:42;;;;;;;;;;;;;;;10.27;100.00;101132.69;5071755;28;19920;-78
2024/02/15 06:04:08;;;;;;;;;;;;;;;10.30;100.00;101139.53;5079765;28;20398;-78
2024/02/15 06:06:36;;;;;;;;;;;;;;;10.27;100.00;101131.84;5081417;28;19927;-77
2024/02/15 06:09:02;;;;;;;;;;;;;;;10.28;100.00;101133.50;5072459;28;19920;-77
2024/02/15 06:11:28;;;;;;;;;;;;;;;10.27;100.00;101135.38;5082409;28;20276;-78
2024/02/15 06:13:53;;;;;;;;;;;;;;;10.24;100.00;101148.34;5105500;28;19933;-78
2024/02/15 06:16:18;;;;;;;;;;;;;;;10.21;100.00;101132.59;5075263;28;20403;-78
2024/02/15 06:18:44;;;;;;;;;;;;;;;10.19;100.00;101146.22;5076128;28;19929;-78
2024/02/15 06:21:09;;;;;;;;;;;;;;;10.19;100.00;101142.72;5085818;28;19924;-78
2024/02/15 06:23:35;;;;;;;;;;;;;;;10.15;100.00;101137.72;5069955;28;20003;-78
2024/02/15 06:26:02;;;;;;;;;;;;;;;10.14;100.00;101136.03;5072396;28;20364;-79
2024/02/15 06:39:43;;;;;;;;;;;;;;;9.97;100.00;101097.72;5077074;28;20384;-80
2024/02/15 06:42:08;;;;;;;;;;;;;;;9.94;100.00;101078.47;5064264;28;19924;-80
2024/02/15 06:44:33;;;;;;;;;;;;;;;9.89;100.00;101072.78;5078262;28;19932;-79
2024/02/15 06:46:59;;;;;;;;;;;;;;;9.85;100.00;101062.44;5074061;28;20005;-79
2024/02/15 06:49:24;;;;;;;;;;;;;;;9.77;100.00;101053.63;5075253;28;19931;-79
2024/02/15 06:51:50;;;;;;;;;;;;;;;9.78;100.00;101052.63;5081638;28;19920;-79
2024/02/15 06:54:17;;;;;;;;;;;;;;;9.76;100.00;101039.34;5084886;28;19924;-79
2024/02/15 06:56:43;;;;;;;;;;;;;;;9.75;100.00;101040.38;5078323;28;20014;-78
2024/02/15 06:59:10;;;;;;;;;;;;;;;9.84;100.00;101050.00;5080926;28;19920;-78
2024/02/15 07:01:35;;;;;;;;;;;;;;;9.82;100.00;101054.75;5085189;28;20441;-78
2024/02/15 07:04:03;;;;;;;;;;;;;;;9.90;100.00;101053.81;5086317;28;19920;-78
2024/02/15 07:06:28;;;;;;;;;;;;;;;9.95;100.00;101072.06;5089117;28;19927;-77
2024/02/15 07:08:57;;;;;;;;;;;;;;;10.00;100.00;101091.16;5085014;28;19924;-78
2024/02/15 07:11:22;;;;;;;;;;;;;;;10.06;100.00;101098.47;5087404;28;20356;-78
2024/02/15 07:13:48;;;;;;;;;;;;;;;9.99;100.00;101101.06;5087262;28;19966;-78
2024/02/15 07:16:15;;;;;;;;;;;;;;;10.05;100.00;101104.03;5084983;28;20359;-78
2024/02/15 07:18:40;;;;;;;;;;;;;;;10.06;100.00;101106.53;5087999;28;19943;-78
2024/02/15 07:21:10;;;;;;;;;;;;;;;10.07;100.00;101112.75;5088266;28;20368;-78
2024/02/15 07:23:36;;;;;;;;;;;;;;;10.09;100.00;101114.22;5087569;28;19973;-77
2024/02/15 07:26:01;;;;;;;;;;;;;;;10.11;100.00;101114.06;5086989;28;19928;-78
2024/02/15 07:28:26;;;;;;;;;;;;;;;10.07;100.00;101113.59;5086987;28;19978;-77
2024/02/15 07:30:52;;;;;;;;;;;;;;;10.10;100.00;101107.84;5079328;28;19924;-78
2024/02/15 07:33:17;;;;;;;;;;;;;;;10.11;100.00;101114.88;5068909;28;19928;-77
2024/02/15 07:35:43;;;;;;;;;;;;;;;10.12;100.00;101111.19;5088265;28;19935;-78
2024/02/15 07:38:08;;;;;;;;;;;;;;;10.12;100.00;101113.88;5087244;28;19920;-77
2024/02/15 07:40:34;;;;;;;;;;;;;;;10.12;100.00;101105.78;5086251;28;20011;-77
2024/02/15 07:42:59;;;;;;;;;;;;;;;10.12;100.00;101095.03;5088764;28;19924;-77
2024/02/15 07:45:24;;;;;;;;;;;;;;;10.14;100.00;101097.56;5087240;28;20032;-77
2024/02/15 07:47:49;;;;;;;;;;;;;;;10.13;100.00;101104.78;5087954;28;20106;-77
2024/02/15 07:50:20;;;;;;;;;;;;;;;10.13;100.00;101103.97;5088638;28;19920;-78
2024/02/15 07:52:46;;;;;;;;;;;;;;;10.14;100.00;101103.75;5088021;28;19924;-77
2024/02/15 07:55:12;;;;;;;;;;;;;;;10.15;100.00;101104.56;5070956;28;19936;-78
2024/02/15 07:57:37;;;;;;;;;;;;;;;10.12;100.00;101103.09;5073864;28;19920;-77
2024/02/15 08:00:05;;;;;;;;;;;;;;;10.14;100.00;101109.13;5068606;28;20425;-78
2024/02/15 08:02:31;;;;;;;;;;;;;;;10.16;100.00;101106.25;5080410;28;20030;-77
2024/02/15 08:04:56;;;;;;;;;;;;;;;10.19;100.00;101105.88;5076760;28;20350;-77
2024/02/15 08:07:21;;;;;;;;;;;;;;;10.20;100.00;101114.78;5069782;28;19920;-77
2024/02/15 08:09:50;;;;;;;;;;;;;;;10.20;100.00;101123.69;5079747;28;19931;-77
2024/02/15 08:12:15;;;;;;;;;;;;;;;10.24;100.00;101121.44;5081690;28;19927;-77
2024/02/15 08:14:42;;;;;;;;;;;;;;;10.21;100.00;101117.28;5073537;28;19924;-77
2024/02/15 08:17:08;;;;;;;;;;;;;;;10.20;100.00;101122.88;5068746;28;20007;-79
2024/02/15 08:19:34;;;;;;;;;;;;;;;10.22;100.00;101121.66;5083139;28;20368;-81
2024/02/15 08:22:04;;;;;;;;;;;;;;;10.27;100.00;101123.75;5097005;28;19908;-79
2024/02/15 08:24:29;;;;;;;;;;;;;;;10.28;100.00;101111.97;5080377;28;20014;-79
2024/02/15 08:26:55;;;;;;;;;;;;;;;10.24;100.00;101114.22;5075938;28;20304;-79
2024/02/15 08:29:20;;;;;;;;;;;;;;;10.32;100.00;101121.34;5077110;28;19968;-78
2024/02/15 08:31:45;;;;;;;;;;;;;;;10.36;100.00;101119.97;5069421;28;20006;-78
2024/02/15 08:34:14;;;;;;;;;;;;;;;10.32;100.00;101115.97;5078319;28;19955;-80
2024/02/15 08:36:39;;;;;;;;;;;;;;;10.35;100.00;101112.91;5080381;28;19928;-79
2024/02/15 08:39:05;;;;;;;;;;;;;;;10.33;100.00;101123.03;5072179;28;20390;-80
2024/02/15 08:41:30;;;;;;;;;;;;;;;10.33;100.00;101123.03;5072688;28;19927;-81
2024/02/15 08:44:01;;;;;;;;;;;;;;;10.35;100.00;101126.38;5080169;28;20460;-80
2024/02/15 08:46:27;;;;;;;;;;;;;;;10.34;100.00;101130.06;5072307;28;19982;-79
2024/02/15 08:48:52;;;;;;;;;;;;;;;10.35;100.00;101130.91;5075835;28;20372;-79
2024/02/15 08:51:17;;;;;;;;;;;;;;;10.28;100.00;101137.06;5077226;28;19927;-79
2024/02/15 08:53:43;;;;;;;;;;;;;;;10.24;100.00;101134.91;5090937;28;20149;-81
2024/02/15 08:56:10;;;;;;;;;;;;;;;10.26;100.00;101130.16;5090045;28;19920;-81
2024/02/15 08:58:35;;;;;;;;;;;;;;;10.22;100.00;101131.59;5091520;28;19981;-81
2024/02/15 09:01:00;;;;;;;;;;;;;;;10.31;100.00;101133.13;5090259;28;19924;-84
2024/02/15 09:03:25;;;;;;;;;;;;;;;10.28;100.00;101138.88;5088873;28;19926;-82
2024/02/15 09:05:59;;;;;;;;;;;;;;;10.30;100.00;101150.31;5090918;28;20019;-89
2024/02/15 09:08:24;;;;;;;;;;;;;;;10.33;100.00;101141.84;5091037;28;19931;-84
2024/02/15 09:10:49;;;;;;;;;;;;;;;10.27;100.00;101139.91;5089884;28;19928;-83
2024/02/15 09:13:14;;;;;;;;;;;;;;;10.39;100.00;101146.53;5092380;28;19926;-82
2024/02/15 09:15:41;;;;;;;;;;;;;;;10.45;100.00;101140.38;5090484;28;20399;-84
2024/02/15 09:18:09;;;;;;;;;;;;;;;10.49;100.00;101156.16;5083262;28;19921;-80
2024/02/15 09:20:37;;;;;;;;;;;;;;;10.48;100.00;101147.25;5089478;28;19999;-81
2024/02/15 09:23:06;;;;;;;;;;;;;;;10.46;100.00;101142.03;5091142;28;20442;-82
2024/02/15 09:25:31;;;;;;;;;;;;;;;10.36;100.00;101144.19;5089378;28;19931;-81
2024/02/15 09:27:57;;;;;;;;;;;;;;;10.43;100.00;101144.28;5086750;28;19928;-81
2024/02/15 09:30:24;;;;;;;;;;;;;;;10.35;100.00;101137.13;5089078;28;19931;-82
2024/02/15 09:32:49;;;;;;;;;;;;;;;10.37;100.00;101136.94;5134467;22;19931;-83
2024/02/15 09:35:15;;;;;;;;;;;;;;;10.43;100.00;101128.97;5070138;28;19921;-83
2024/02/15 09:37:44;;;;;;;;;;;;;;;10.44;100.00;101138.69;5069443;28;19921;-83
2024/02/15 09:40:10;;;;;;;;;;;;;;;10.50;100.00;101144.38;5065735;28;20129;-83
2024/02/15 09:42:35;;;;;;;;;;;;;;;10.49;100.00;101137.31;5070059;28;19924;-83
2024/02/15 09:45:02;;;;;;;;;;;;;;;10.46;100.00;101135.84;5068373;28;19978;-83
2024/02/15 09:47:28;;;;;;;;;;;;;;;10.52;100.00;101147.69;5069567;28;20402;-84
2024/02/15 09:49:53;;;;;;;;;;;;;;;10.52;100.00;101153.91;5051916;28;19964;-81
2024/02/15 09:52:19;;;;;;;;;;;;;;;10.54;100.00;101148.34;5068995;28;19971;-83
2024/02/15 09:54:44;;;;;;;;;;;;;;;10.55;100.00;101132.00;5048236;28;19931;-83
2024/02/15 09:57:10;;;;;;;;;;;;;;;10.52;100.00;101124.28;5060304;28;19921;-82
2024/02/15 09:59:36;;;;;;;;;;;;;;;10.46;100.00;101117.81;5066860;28;19917;-83
2024/02/15 10:02:01;;;;;;;;;;;;;;;10.49;100.00;101129.22;5066319;28;19920;-82
2024/02/15 10:04:26;;;;;;;;;;;;;;;10.41;100.00;101124.81;5070049;28;19920;-82
2024/02/15 10:06:52;;;;;;;;;;;;;;;10.40;100.00;101126.66;5067101;28;19959;-83
2024/02/15 10:09:43;;;;;;;;;;;;;;;10.37;100.00;101123.47;5065598;28;20054;-83
2024/02/15 10:12:09;;;;;;;;;;;;;;;10.32;100.00;101118.66;5067218;28;19978;-83
2024/02/15 10:14:34;;;;;;;;;;;;;;;10.28;100.00;101114.69;5067868;28;19924;-81
2024/02/15 10:17:05;;;;;;;;;;;;;;;10.26;100.00;101114.88;5066478;28;19924;-81
2024/02/15 10:19:34;;;;;;;;;;;;;;;10.24;100.00;101106.16;5069075;28;20026;-82
2024/02/15 10:22:06;;;;;;;;;;;;;;;10.27;100.00;101116.53;5064649;28;20335;-82
2024/02/15 10:24:31;;;;;;;;;;;;;;;10.26;100.00;101111.34;5067788;28;19921;-83
2024/02/15 10:27:10;;;;;;;;;;;;;;;10.36;100.00;101106.50;5061227;28;20002;-82
2024/02/15 10:29:41;;;;;;;;;;;;;;;10.42;100.00;101105.75;5085767;28;19913;-82
2024/02/15 10:32:10;;;;;;;;;;;;;;;10.39;100.00;101108.00;5009356;28;1747738;-80
2024/02/15 10:34:36;;;;;;;;;;;;;;;10.45;100.00;101116.16;5054398;28;20372;-80
2024/02/15 10:37:12;;;;;;;;;;;;;;;10.52;100.00;101116.22;5044421;28;19924;-79
2024/02/15 10:39:37;;;;;;;;;;;;;;;10.56;100.00;101111.31;5068825;28;19920;-78
2024/02/15 10:42:02;;;;;;;;;;;;;;;10.64;100.00;101108.47;5068695;28;19920;-78
2024/02/15 10:44:28;;;;;;;;;;;;;;;10.65;100.00;101099.38;5050410;28;19924;-78
2024/02/15 10:46:53;;;;;;;;;;;;;;;10.74;100.00;101098.25;5068779;28;19966;-78
2024/02/15 10:49:19;;;;;;;;;;;;;;;10.77;100.00;101083.56;5061048;28;19973;-79
2024/02/15 10:51:45;;;;;;;;;;;;;;;10.88;100.00;101083.03;5067159;28;20435;-79
2024/02/15 10:54:14;;;;;;;;;;;;;;;10.96;100.00;101083.94;5068681;28;20018;-78
2024/02/15 10:56:43;;;;;;;;;;;;;;;11.02;100.00;101083.16;5050155;28;19920;-78
2024/02/15 10:59:20;;;;;;;;;;;;;;;11.07;100.00;101076.16;5069192;28;19924;-78
2024/02/15 11:01:45;;;;;;;;;;;;;;;11.04;100.00;101065.78;5061322;28;19951;-77
2024/02/15 11:04:11;;;;;;;;;;;;;;;11.17;100.00;101061.50;5069626;28;19921;-78
2024/02/15 11:06:39;;;;;;;;;;;;;;;11.18;100.00;101057.78;5050901;28;19960;-77
2024/02/15 11:09:06;;;;;;;;;;;;;;;11.27;100.00;101062.00;5068712;28;19956;-79
2024/02/15 11:11:31;;;;;;;;;;;;;;;11.43;100.00;101057.34;5068466;28;19924;-79
2024/02/15 11:14:15;;;;;;;;;;;;;;;11.45;100.00;101060.69;5050802;28;20304;-79
2024/02/15 11:16:43;;;;;;;;;;;;;;;11.47;100.00;101058.63;5068307;28;19920;-79
2024/02/15 11:19:10;;;;;;;;;;;;;;;11.60;100.00;101063.25;5069028;28;19934;-79
2024/02/15 11:21:53;;;;;;;;;;;;;;;11.59;100.00;101062.41;5068080;28;20023;-79
2024/02/15 11:24:37;;;;;;;;;;;;;;;11.66;100.00;101049.78;5068736;28;20018;-78
2024/02/15 11:27:03;;;;;;;;;;;;;;;11.71;100.00;101051.06;5061557;28;19924;-77
2024/02/15 11:29:48;;;;;;;;;;;;;;;11.70;100.00;101060.19;5068015;28;20007;-79
2024/02/15 11:32:33;;;;;;;;;;;;;;;11.81;100.00;101054.25;5062750;28;19921;-80
2024/02/15 11:35:09;;;;;;;;;;;;;;;11.80;100.00;101061.50;5043083;28;19960;-80
2024/02/15 11:37:51;;;;;;;;;;;;;;;11.81;100.00;101065.03;5049934;28;20032;-80
2024/02/15 11:40:16;;;;;;;;;;;;;;;11.93;100.00;101062.56;5068658;28;19920;-80
2024/02/15 11:42:42;;;;;;;;;;;;;;;11.95;100.00;101055.97;5064233;28;20071;-79
2024/02/15 11:45:08;;;;;;;;;;;;;;;12.04;100.00;101047.72;5053802;28;19935;-79
2024/02/15 11:47:35;;;;;;;;;;;;;;;12.02;100.00;101049.78;5052603;28;19944;-79
2024/02/15 11:50:01;;;;;;;;;;;;;;;12.02;100.00;101053.31;5065714;28;20014;-79
2024/02/15 11:52:26;;;;;;;;;;;;;;;12.08;100.00;101040.88;5051036;28;19990;-79
2024/02/15 11:54:51;;;;;;;;;;;;;;;12.02;100.00;101044.38;5056954;28;20030;-79
2024/02/15 11:57:25;;;;;;;;;;;;;;;12.02;100.00;101044.38;5052434;28;19925;-79
2024/02/15 12:18:38;;;;;;;;;;;;;;;12.09;100.00;101037.16;5058556;28;19925;-80
2024/02/15 12:19:17;;;;;;;;;;;;;;;12.41;100.00;101014.00;5052556;28;20343;-80
2024/02/15 12:21:42;;;;;;;;;;;;;;;12.51;100.00;101005.50;5060865;28;19951;-80
2024/02/15 12:24:11;;;;;;;;;;;;;;;12.56;100.00;101004.84;5060593;28;19983;-80
2024/02/15 12:26:38;;;;;;;;;;;;;;;12.62;100.00;101008.59;5051927;28;20011;-79
2024/02/15 12:29:06;;;;;;;;;;;;;;;12.68;100.00;100999.69;5068366;28;19959;-79
2024/02/15 12:31:31;;;;;;;;;;;;;;;12.67;100.00;100998.00;5062366;28;19924;-78
2024/02/15 12:34:00;;;;;;;;;;;;;;;12.66;100.00;100996.34;5061974;28;20388;-78
2024/02/15 12:36:26;;;;;;;;;;;;;;;12.64;100.00;100982.22;5080810;28;19928;-79
2024/02/15 12:38:58;;;;;;;;;;;;;;;12.62;100.00;100995.09;5056788;28;20316;-79
2024/02/15 12:41:23;;;;;;;;;;;;;;;12.65;100.00;100994.69;5057036;28;19979;-79
2024/02/15 12:43:56;;;;;;;;;;;;;;;12.62;100.00;100997.78;5055101;28;20281;-79
2024/02/15 12:46:22;;;;;;;;;;;;;;;12.65;100.00;100994.69;5067226;28;20372;-79
2024/02/15 12:48:47;;;;;;;;;;;;;;;12.67;100.00;100987.22;5041457;28;20036;-78
2024/02/15 12:51:13;;;;;;;;;;;;;;;12.70;100.00;100981.41;5059743;28;19925;-80
2024/02/15 12:53:38;;;;;;;;;;;;;;;12.71;100.00;100972.22;5060632;28;19951;-77